sensor_id;sensor_type;location;lat;lon;timestamp;P1;durP1;ratioP1;P2;durP2;ratioP2
78183;SDS011;67442;44.570;18.610;2024-03-29T00:00:40;46.30;;;17.88;;
78183;SDS011;67442;44.570;18.610;2024-03-29T00:03:27;68.32;;;23.90;;
78183;SDS011;67442;44.570;18.610;2024-03-29T00:05:55;44.75;;;14.35;;
78183;SDS011;67442;44.570;18.610;2024-03-29T00:08:22;47.45;;;16.00;;
78183;SDS011;67442;44.570;18.610;2024-03-29T00:10:50;49.70;;;17.33;;
78183;SDS011;67442;44.570;18.610;2024-03-29T00:13:17;35.35;;;11.25;;
78183;SDS011;67442;44.570;18.610;2024-03-29T00:15:45;38.03;;;12.90;;
78183;SDS011;67442;44.570;18.610;2024-03-29T00:18:12;29.20;;;10.70;;
78183;SDS011;67442;44.570;18.610;2024-03-29T00:20:39;43.97;;;10.73;;
78183;SDS011;67442;44.570;18.610;2024-03-29T00:23:06;28.90;;;9.38;;
78183;SDS011;67442;44.570;18.610;2024-03-29T00:25:33;25.48;;;8.90;;
78183;SDS011;67442;44.570;18.610;2024-03-29T00:28:01;51.15;;;19.17;;
78183;SDS011;67442;44.570;18.610;2024-03-29T00:30:29;48.65;;;16.95;;
78183;SDS011;67442;44.570;18.610;2024-03-29T00:32:56;36.83;;;15.27;;
78183;SDS011;67442;44.570;18.610;2024-03-29T00:35:23;71.55;;;24.90;;
78183;SDS011;67442;44.570;18.610;2024-03-29T00:37:51;55.33;;;17.15;;
78183;SDS011;67442;44.570;18.610;2024-03-29T00:40:18;44.90;;;16.70;;
78183;SDS011;67442;44.570;18.610;2024-03-29T00:42:45;45.72;;;16.52;;
78183;SDS011;67442;44.570;18.610;2024-03-29T00:45:13;35.28;;;14.10;;
78183;SDS011;67442;44.570;18.610;2024-03-29T00:47:41;46.58;;;15.50;;
78183;SDS011;67442;44.570;18.610;2024-03-29T00:50:08;53.95;;;18.00;;
78183;SDS011;67442;44.570;18.610;2024-03-29T00:52:37;36.42;;;12.35;;
78183;SDS011;67442;44.570;18.610;2024-03-29T00:55:04;36.70;;;11.82;;
78183;SDS011;67442;44.570;18.610;2024-03-29T00:57:33;32.13;;;10.80;;
78183;SDS011;67442;44.570;18.610;2024-03-29T01:00:00;38.47;;;12.85;;
78183;SDS011;67442;44.570;18.610;2024-03-29T01:02:29;40.45;;;13.88;;
78183;SDS011;67442;44.570;18.610;2024-03-29T01:04:56;26.67;;;9.98;;
78183;SDS011;67442;44.570;18.610;2024-03-29T01:07:23;42.03;;;11.98;;
78183;SDS011;67442;44.570;18.610;2024-03-29T01:09:51;35.15;;;10.50;;
78183;SDS011;67442;44.570;18.610;2024-03-29T01:12:19;28.67;;;8.85;;
78183;SDS011;67442;44.570;18.610;2024-03-29T01:14:46;55.78;;;15.73;;
78183;SDS011;67442;44.570;18.610;2024-03-29T01:17:14;47.50;;;17.10;;
78183;SDS011;67442;44.570;18.610;2024-03-29T01:19:41;47.33;;;17.52;;
78183;SDS011;67442;44.570;18.610;2024-03-29T01:22:09;44.88;;;14.48;;
78183;SDS011;67442;44.570;18.610;2024-03-29T01:24:36;31.35;;;11.27;;
78183;SDS011;67442;44.570;18.610;2024-03-29T01:27:04;79.43;;;23.75;;
78183;SDS011;67442;44.570;18.610;2024-03-29T01:29:32;42.25;;;14.57;;
78183;SDS011;67442;44.570;18.610;2024-03-29T01:31:59;43.83;;;13.82;;
78183;SDS011;67442;44.570;18.610;2024-03-29T01:34:27;38.15;;;14.38;;
78183;SDS011;67442;44.570;18.610;2024-03-29T01:36:55;50.88;;;17.27;;
78183;SDS011;67442;44.570;18.610;2024-03-29T01:39:22;38.33;;;12.27;;
78183;SDS011;67442;44.570;18.610;2024-03-29T01:41:54;33.83;;;12.43;;
78183;SDS011;67442;44.570;18.610;2024-03-29T01:44:22;61.38;;;20.48;;
78183;SDS011;67442;44.570;18.610;2024-03-29T01:46:49;36.22;;;11.88;;
78183;SDS011;67442;44.570;18.610;2024-03-29T01:49:17;45.15;;;14.43;;
78183;SDS011;67442;44.570;18.610;2024-03-29T01:51:44;33.53;;;12.02;;
78183;SDS011;67442;44.570;18.610;2024-03-29T01:54:12;36.15;;;12.93;;
78183;SDS011;67442;44.570;18.610;2024-03-29T01:56:40;27.15;;;8.18;;
78183;SDS011;67442;44.570;18.610;2024-03-29T01:59:10;25.15;;;8.27;;
78183;SDS011;67442;44.570;18.610;2024-03-29T02:01:40;31.13;;;9.18;;
78183;SDS011;67442;44.570;18.610;2024-03-29T02:04:09;26.83;;;9.43;;
78183;SDS011;67442;44.570;18.610;2024-03-29T02:06:37;50.10;;;14.70;;
78183;SDS011;67442;44.570;18.610;2024-03-29T02:09:05;75.30;;;21.98;;
78183;SDS011;67442;44.570;18.610;2024-03-29T02:11:33;62.90;;;19.80;;
78183;SDS011;67442;44.570;18.610;2024-03-29T02:14:00;36.42;;;13.20;;
78183;SDS011;67442;44.570;18.610;2024-03-29T02:16:27;32.63;;;11.27;;
78183;SDS011;67442;44.570;18.610;2024-03-29T02:18:55;55.72;;;17.75;;
78183;SDS011;67442;44.570;18.610;2024-03-29T02:21:22;28.40;;;11.38;;
78183;SDS011;67442;44.570;18.610;2024-03-29T02:24:22;42.92;;;13.02;;
78183;SDS011;67442;44.570;18.610;2024-03-29T02:26:43;38.95;;;13.43;;
78183;SDS011;67442;44.570;18.610;2024-03-29T02:29:10;47.38;;;16.98;;
78183;SDS011;67442;44.570;18.610;2024-03-29T02:31:38;33.10;;;11.68;;
78183;SDS011;67442;44.570;18.610;2024-03-29T02:34:05;32.42;;;11.00;;
78183;SDS011;67442;44.570;18.610;2024-03-29T02:36:34;31.20;;;11.20;;
78183;SDS011;67442;44.570;18.610;2024-03-29T02:39:02;32.15;;;10.55;;
78183;SDS011;67442;44.570;18.610;2024-03-29T02:41:29;36.08;;;10.98;;
78183;SDS011;67442;44.570;18.610;2024-03-29T02:43:57;32.25;;;10.52;;
78183;SDS011;67442;44.570;18.610;2024-03-29T02:46:24;40.45;;;13.68;;
78183;SDS011;67442;44.570;18.610;2024-03-29T02:48:52;50.55;;;17.15;;
78183;SDS011;67442;44.570;18.610;2024-03-29T02:51:19;63.80;;;21.73;;
78183;SDS011;67442;44.570;18.610;2024-03-29T02:53:46;76.55;;;26.42;;
78183;SDS011;67442;44.570;18.610;2024-03-29T02:56:14;68.75;;;25.90;;
78183;SDS011;67442;44.570;18.610;2024-03-29T02:58:46;55.13;;;19.90;;
78183;SDS011;67442;44.570;18.610;2024-03-29T03:01:14;60.55;;;21.67;;
78183;SDS011;67442;44.570;18.610;2024-03-29T03:03:41;43.38;;;16.70;;
78183;SDS011;67442;44.570;18.610;2024-03-29T03:06:09;42.83;;;16.55;;
78183;SDS011;67442;44.570;18.610;2024-03-29T03:08:37;55.65;;;21.92;;
78183;SDS011;67442;44.570;18.610;2024-03-29T03:11:21;54.67;;;19.48;;
78183;SDS011;67442;44.570;18.610;2024-03-29T03:13:49;53.25;;;18.60;;
78183;SDS011;67442;44.570;18.610;2024-03-29T03:16:17;52.17;;;18.77;;
78183;SDS011;67442;44.570;18.610;2024-03-29T03:18:44;61.05;;;19.60;;
78183;SDS011;67442;44.570;18.610;2024-03-29T03:21:12;48.58;;;16.42;;
78183;SDS011;67442;44.570;18.610;2024-03-29T03:23:39;39.38;;;14.85;;
78183;SDS011;67442;44.570;18.610;2024-03-29T03:26:07;47.65;;;16.20;;
78183;SDS011;67442;44.570;18.610;2024-03-29T03:28:35;52.55;;;16.55;;
78183;SDS011;67442;44.570;18.610;2024-03-29T03:31:02;62.55;;;19.77;;
78183;SDS011;67442;44.570;18.610;2024-03-29T03:33:30;37.65;;;13.57;;
78183;SDS011;67442;44.570;18.610;2024-03-29T03:35:58;35.42;;;11.50;;
78183;SDS011;67442;44.570;18.610;2024-03-29T03:38:25;24.20;;;8.70;;
78183;SDS011;67442;44.570;18.610;2024-03-29T03:40:52;28.65;;;7.80;;
78183;SDS011;67442;44.570;18.610;2024-03-29T03:43:19;101.07;;;31.95;;
78183;SDS011;67442;44.570;18.610;2024-03-29T03:45:47;26.85;;;8.73;;
78183;SDS011;67442;44.570;18.610;2024-03-29T03:48:15;27.05;;;8.20;;
78183;SDS011;67442;44.570;18.610;2024-03-29T03:50:42;41.05;;;9.15;;
78183;SDS011;67442;44.570;18.610;2024-03-29T03:53:10;21.58;;;7.65;;
78183;SDS011;67442;44.570;18.610;2024-03-29T03:55:38;24.80;;;7.88;;
78183;SDS011;67442;44.570;18.610;2024-03-29T03:58:05;88.60;;;28.77;;
78183;SDS011;67442;44.570;18.610;2024-03-29T04:00:33;25.48;;;9.88;;
78183;SDS011;67442;44.570;18.610;2024-03-29T04:03:00;24.00;;;8.40;;
78183;SDS011;67442;44.570;18.610;2024-03-29T04:05:29;24.80;;;8.15;;
78183;SDS011;67442;44.570;18.610;2024-03-29T04:07:57;19.30;;;7.03;;
78183;SDS011;67442;44.570;18.610;2024-03-29T04:10:25;32.38;;;9.48;;
78183;SDS011;67442;44.570;18.610;2024-03-29T04:12:53;30.15;;;9.93;;
78183;SDS011;67442;44.570;18.610;2024-03-29T04:15:20;35.85;;;12.30;;
78183;SDS011;67442;44.570;18.610;2024-03-29T04:17:48;47.35;;;17.02;;
78183;SDS011;67442;44.570;18.610;2024-03-29T04:20:15;40.92;;;12.45;;
78183;SDS011;67442;44.570;18.610;2024-03-29T04:22:43;41.70;;;14.45;;
78183;SDS011;67442;44.570;18.610;2024-03-29T04:25:11;35.80;;;11.48;;
78183;SDS011;67442;44.570;18.610;2024-03-29T04:27:40;25.67;;;8.50;;
78183;SDS011;67442;44.570;18.610;2024-03-29T04:30:08;40.92;;;13.25;;
78183;SDS011;67442;44.570;18.610;2024-03-29T04:32:35;38.13;;;10.63;;
78183;SDS011;67442;44.570;18.610;2024-03-29T04:35:03;25.13;;;8.88;;
78183;SDS011;67442;44.570;18.610;2024-03-29T04:37:31;25.92;;;8.52;;
78183;SDS011;67442;44.570;18.610;2024-03-29T04:39:59;26.10;;;8.50;;
78183;SDS011;67442;44.570;18.610;2024-03-29T04:42:27;38.40;;;10.90;;
78183;SDS011;67442;44.570;18.610;2024-03-29T04:44:55;33.40;;;9.88;;
78183;SDS011;67442;44.570;18.610;2024-03-29T04:47:22;42.72;;;14.18;;
78183;SDS011;67442;44.570;18.610;2024-03-29T04:49:49;49.05;;;17.15;;
78183;SDS011;67442;44.570;18.610;2024-03-29T04:52:17;36.42;;;13.45;;
78183;SDS011;67442;44.570;18.610;2024-03-29T04:54:44;33.10;;;11.50;;
78183;SDS011;67442;44.570;18.610;2024-03-29T04:57:12;60.33;;;14.23;;
78183;SDS011;67442;44.570;18.610;2024-03-29T04:59:39;33.08;;;8.77;;
78183;SDS011;67442;44.570;18.610;2024-03-29T05:02:07;17.75;;;5.43;;
78183;SDS011;67442;44.570;18.610;2024-03-29T05:04:34;17.30;;;5.43;;
78183;SDS011;67442;44.570;18.610;2024-03-29T05:07:02;45.35;;;9.63;;
78183;SDS011;67442;44.570;18.610;2024-03-29T05:09:30;30.83;;;10.15;;
78183;SDS011;67442;44.570;18.610;2024-03-29T05:11:57;47.88;;;19.70;;
78183;SDS011;67442;44.570;18.610;2024-03-29T05:14:25;59.13;;;23.48;;
78183;SDS011;67442;44.570;18.610;2024-03-29T05:16:52;58.88;;;22.23;;
78183;SDS011;67442;44.570;18.610;2024-03-29T05:19:20;77.68;;;30.08;;
78183;SDS011;67442;44.570;18.610;2024-03-29T05:21:47;94.38;;;33.00;;
78183;SDS011;67442;44.570;18.610;2024-03-29T05:24:15;66.40;;;25.95;;
78183;SDS011;67442;44.570;18.610;2024-03-29T05:26:43;68.72;;;23.65;;
78183;SDS011;67442;44.570;18.610;2024-03-29T05:29:11;65.43;;;21.65;;
78183;SDS011;67442;44.570;18.610;2024-03-29T05:31:38;92.03;;;27.80;;
78183;SDS011;67442;44.570;18.610;2024-03-29T05:34:07;73.10;;;24.45;;
78183;SDS011;67442;44.570;18.610;2024-03-29T05:36:35;66.40;;;22.85;;
78183;SDS011;67442;44.570;18.610;2024-03-29T05:39:05;71.25;;;24.15;;
78183;SDS011;67442;44.570;18.610;2024-03-29T05:41:33;180.57;;;57.25;;
78183;SDS011;67442;44.570;18.610;2024-03-29T05:44:00;164.82;;;55.45;;
78183;SDS011;67442;44.570;18.610;2024-03-29T05:46:28;216.48;;;66.28;;
78183;SDS011;67442;44.570;18.610;2024-03-29T05:48:55;155.57;;;44.67;;
78183;SDS011;67442;44.570;18.610;2024-03-29T05:51:23;186.57;;;55.20;;
78183;SDS011;67442;44.570;18.610;2024-03-29T05:53:50;123.90;;;41.90;;
78183;SDS011;67442;44.570;18.610;2024-03-29T05:56:18;103.63;;;34.47;;
78183;SDS011;67442;44.570;18.610;2024-03-29T05:58:46;89.75;;;32.80;;
78183;SDS011;67442;44.570;18.610;2024-03-29T06:01:14;54.20;;;20.90;;
78183;SDS011;67442;44.570;18.610;2024-03-29T06:03:45;55.95;;;23.38;;
78183;SDS011;67442;44.570;18.610;2024-03-29T06:06:13;56.13;;;20.27;;
78183;SDS011;67442;44.570;18.610;2024-03-29T06:08:43;48.50;;;19.23;;
78183;SDS011;67442;44.570;18.610;2024-03-29T06:11:14;40.72;;;15.18;;
78183;SDS011;67442;44.570;18.610;2024-03-29T06:13:41;46.28;;;17.48;;
78183;SDS011;67442;44.570;18.610;2024-03-29T06:16:17;45.15;;;13.95;;
78183;SDS011;67442;44.570;18.610;2024-03-29T06:19:06;37.50;;;15.27;;
78183;SDS011;67442;44.570;18.610;2024-03-29T06:21:33;52.78;;;17.23;;
78183;SDS011;67442;44.570;18.610;2024-03-29T06:24:09;47.70;;;17.30;;
78183;SDS011;67442;44.570;18.610;2024-03-29T06:26:38;50.33;;;19.45;;
78183;SDS011;67442;44.570;18.610;2024-03-29T06:29:05;60.63;;;22.85;;
78183;SDS011;67442;44.570;18.610;2024-03-29T06:31:35;53.78;;;21.20;;
78183;SDS011;67442;44.570;18.610;2024-03-29T06:34:02;75.45;;;29.63;;
78183;SDS011;67442;44.570;18.610;2024-03-29T06:36:29;34.50;;;13.32;;
78183;SDS011;67442;44.570;18.610;2024-03-29T06:38:58;37.03;;;14.35;;
78183;SDS011;67442;44.570;18.610;2024-03-29T06:41:29;33.42;;;11.77;;
78183;SDS011;67442;44.570;18.610;2024-03-29T06:43:57;29.83;;;12.52;;
78183;SDS011;67442;44.570;18.610;2024-03-29T06:46:24;39.72;;;16.10;;
78183;SDS011;67442;44.570;18.610;2024-03-29T06:48:52;65.70;;;28.85;;
78183;SDS011;67442;44.570;18.610;2024-03-29T06:51:24;47.13;;;21.52;;
78183;SDS011;67442;44.570;18.610;2024-03-29T06:53:56;41.00;;;17.75;;
78183;SDS011;67442;44.570;18.610;2024-03-29T06:56:23;25.63;;;10.77;;
78183;SDS011;67442;44.570;18.610;2024-03-29T06:58:51;27.77;;;11.10;;
78183;SDS011;67442;44.570;18.610;2024-03-29T07:01:18;39.20;;;12.43;;
78183;SDS011;67442;44.570;18.610;2024-03-29T07:03:46;26.95;;;7.22;;
78183;SDS011;67442;44.570;18.610;2024-03-29T07:06:14;23.40;;;6.80;;
78183;SDS011;67442;44.570;18.610;2024-03-29T07:08:41;16.02;;;4.30;;
78183;SDS011;67442;44.570;18.610;2024-03-29T07:11:08;14.80;;;4.43;;
78183;SDS011;67442;44.570;18.610;2024-03-29T07:13:38;18.70;;;5.22;;
78183;SDS011;67442;44.570;18.610;2024-03-29T07:16:06;20.80;;;4.70;;
78183;SDS011;67442;44.570;18.610;2024-03-29T07:18:33;20.08;;;4.40;;
78183;SDS011;67442;44.570;18.610;2024-03-29T07:21:04;16.63;;;4.30;;
78183;SDS011;67442;44.570;18.610;2024-03-29T07:23:31;20.13;;;4.15;;
78183;SDS011;67442;44.570;18.610;2024-03-29T07:26:00;13.20;;;3.85;;
78183;SDS011;67442;44.570;18.610;2024-03-29T07:28:31;26.10;;;13.88;;
78183;SDS011;67442;44.570;18.610;2024-03-29T07:30:58;19.42;;;3.70;;
78183;SDS011;67442;44.570;18.610;2024-03-29T07:33:33;19.80;;;3.63;;
78183;SDS011;67442;44.570;18.610;2024-03-29T07:36:00;15.55;;;3.38;;
78183;SDS011;67442;44.570;18.610;2024-03-29T07:38:29;17.85;;;3.10;;
78183;SDS011;67442;44.570;18.610;2024-03-29T07:40:59;15.93;;;3.65;;
78183;SDS011;67442;44.570;18.610;2024-03-29T07:43:30;20.10;;;4.38;;
78183;SDS011;67442;44.570;18.610;2024-03-29T07:46:18;15.10;;;3.40;;
78183;SDS011;67442;44.570;18.610;2024-03-29T07:48:48;17.00;;;3.40;;
78183;SDS011;67442;44.570;18.610;2024-03-29T07:51:19;19.08;;;4.95;;
78183;SDS011;67442;44.570;18.610;2024-03-29T07:53:46;18.42;;;2.42;;
78183;SDS011;67442;44.570;18.610;2024-03-29T07:56:17;17.73;;;2.88;;
78183;SDS011;67442;44.570;18.610;2024-03-29T07:58:53;26.10;;;6.63;;
78183;SDS011;67442;44.570;18.610;2024-03-29T08:01:37;26.15;;;6.95;;
78183;SDS011;67442;44.570;18.610;2024-03-29T08:04:10;24.42;;;3.35;;
78183;SDS011;67442;44.570;18.610;2024-03-29T08:06:38;18.88;;;3.42;;
78183;SDS011;67442;44.570;18.610;2024-03-29T08:09:05;12.25;;;2.30;;
78183;SDS011;67442;44.570;18.610;2024-03-29T08:11:32;10.15;;;2.35;;
78183;SDS011;67442;44.570;18.610;2024-03-29T08:14:04;18.90;;;5.38;;
78183;SDS011;67442;44.570;18.610;2024-03-29T08:16:35;13.52;;;3.17;;
78183;SDS011;67442;44.570;18.610;2024-03-29T08:19:03;10.15;;;2.85;;
78183;SDS011;67442;44.570;18.610;2024-03-29T08:21:30;16.90;;;3.75;;
78183;SDS011;67442;44.570;18.610;2024-03-29T08:23:57;12.77;;;2.60;;
78183;SDS011;67442;44.570;18.610;2024-03-29T08:26:29;24.85;;;6.97;;
78183;SDS011;67442;44.570;18.610;2024-03-29T08:28:57;12.82;;;3.78;;
78183;SDS011;67442;44.570;18.610;2024-03-29T08:31:25;17.80;;;3.33;;
78183;SDS011;67442;44.570;18.610;2024-03-29T08:33:56;11.75;;;2.22;;
78183;SDS011;67442;44.570;18.610;2024-03-29T08:36:24;19.45;;;3.28;;
78183;SDS011;67442;44.570;18.610;2024-03-29T08:38:52;19.00;;;2.78;;
78183;SDS011;67442;44.570;18.610;2024-03-29T08:41:20;16.45;;;2.60;;
78183;SDS011;67442;44.570;18.610;2024-03-29T08:43:52;9.90;;;2.13;;
78183;SDS011;67442;44.570;18.610;2024-03-29T08:46:19;13.25;;;2.42;;
78183;SDS011;67442;44.570;18.610;2024-03-29T08:48:46;13.27;;;2.10;;
78183;SDS011;67442;44.570;18.610;2024-03-29T08:51:14;28.73;;;4.68;;
78183;SDS011;67442;44.570;18.610;2024-03-29T08:53:41;19.60;;;3.00;;
78183;SDS011;67442;44.570;18.610;2024-03-29T08:56:09;8.93;;;2.50;;
78183;SDS011;67442;44.570;18.610;2024-03-29T08:58:37;11.05;;;1.77;;
78183;SDS011;67442;44.570;18.610;2024-03-29T09:01:04;8.30;;;1.95;;
78183;SDS011;67442;44.570;18.610;2024-03-29T09:03:31;12.40;;;2.28;;
78183;SDS011;67442;44.570;18.610;2024-03-29T09:05:59;9.73;;;2.60;;
78183;SDS011;67442;44.570;18.610;2024-03-29T09:08:31;10.60;;;2.30;;
78183;SDS011;67442;44.570;18.610;2024-03-29T09:11:02;9.23;;;2.50;;
78183;SDS011;67442;44.570;18.610;2024-03-29T09:13:30;10.13;;;1.80;;
78183;SDS011;67442;44.570;18.610;2024-03-29T09:15:58;10.60;;;2.20;;
78183;SDS011;67442;44.570;18.610;2024-03-29T09:18:25;9.38;;;1.98;;
78183;SDS011;67442;44.570;18.610;2024-03-29T09:20:57;10.30;;;1.77;;
78183;SDS011;67442;44.570;18.610;2024-03-29T09:23:28;8.20;;;1.70;;
78183;SDS011;67442;44.570;18.610;2024-03-29T09:25:57;7.47;;;1.90;;
78183;SDS011;67442;44.570;18.610;2024-03-29T09:28:24;14.95;;;3.75;;
78183;SDS011;67442;44.570;18.610;2024-03-29T09:30:58;11.40;;;1.88;;
78183;SDS011;67442;44.570;18.610;2024-03-29T09:33:26;12.10;;;2.23;;
78183;SDS011;67442;44.570;18.610;2024-03-29T09:35:54;11.45;;;3.20;;
78183;SDS011;67442;44.570;18.610;2024-03-29T09:38:26;23.75;;;4.18;;
78183;SDS011;67442;44.570;18.610;2024-03-29T09:43:29;15.15;;;2.10;;
78183;SDS011;67442;44.570;18.610;2024-03-29T09:46:01;13.68;;;2.17;;
78183;SDS011;67442;44.570;18.610;2024-03-29T09:48:29;15.75;;;2.20;;
78183;SDS011;67442;44.570;18.610;2024-03-29T09:51:05;9.80;;;2.15;;
78183;SDS011;67442;44.570;18.610;2024-03-29T09:53:37;18.20;;;3.83;;
78183;SDS011;67442;44.570;18.610;2024-03-29T09:56:04;13.45;;;2.00;;
78183;SDS011;67442;44.570;18.610;2024-03-29T09:58:33;9.70;;;1.73;;
78183;SDS011;67442;44.570;18.610;2024-03-29T10:01:05;9.05;;;1.98;;
78183;SDS011;67442;44.570;18.610;2024-03-29T10:03:40;22.52;;;2.75;;
78183;SDS011;67442;44.570;18.610;2024-03-29T10:06:10;11.07;;;2.10;;
78183;SDS011;67442;44.570;18.610;2024-03-29T10:08:40;10.93;;;2.42;;
78183;SDS011;67442;44.570;18.610;2024-03-29T10:11:08;17.80;;;1.88;;
78183;SDS011;67442;44.570;18.610;2024-03-29T10:13:40;11.40;;;1.90;;
78183;SDS011;67442;44.570;18.610;2024-03-29T10:16:11;12.05;;;1.92;;
78183;SDS011;67442;44.570;18.610;2024-03-29T10:18:40;11.68;;;2.05;;
78183;SDS011;67442;44.570;18.610;2024-03-29T10:21:12;10.88;;;1.77;;
78183;SDS011;67442;44.570;18.610;2024-03-29T10:23:40;11.93;;;1.85;;
78183;SDS011;67442;44.570;18.610;2024-03-29T10:26:08;16.67;;;3.65;;
78183;SDS011;67442;44.570;18.610;2024-03-29T10:28:40;9.10;;;2.78;;
78183;SDS011;67442;44.570;18.610;2024-03-29T10:31:09;12.65;;;2.90;;
78183;SDS011;67442;44.570;18.610;2024-03-29T10:33:37;13.73;;;1.85;;
78183;SDS011;67442;44.570;18.610;2024-03-29T10:36:05;8.95;;;1.58;;
78183;SDS011;67442;44.570;18.610;2024-03-29T10:38:40;17.45;;;3.15;;
78183;SDS011;67442;44.570;18.610;2024-03-29T10:41:07;13.43;;;2.38;;
78183;SDS011;67442;44.570;18.610;2024-03-29T10:43:35;18.30;;;2.10;;
78183;SDS011;67442;44.570;18.610;2024-03-29T10:46:05;19.05;;;1.92;;
78183;SDS011;67442;44.570;18.610;2024-03-29T10:48:33;14.15;;;2.20;;
78183;SDS011;67442;44.570;18.610;2024-03-29T10:51:02;13.00;;;2.00;;
78183;SDS011;67442;44.570;18.610;2024-03-29T10:53:31;12.93;;;2.20;;
78183;SDS011;67442;44.570;18.610;2024-03-29T10:55:59;13.55;;;2.13;;
78183;SDS011;67442;44.570;18.610;2024-03-29T10:58:30;10.75;;;1.90;;
78183;SDS011;67442;44.570;18.610;2024-03-29T11:01:33;15.60;;;2.60;;
78183;SDS011;67442;44.570;18.610;2024-03-29T11:04:10;10.15;;;1.73;;
78183;SDS011;67442;44.570;18.610;2024-03-29T11:06:43;10.18;;;1.73;;
78183;SDS011;67442;44.570;18.610;2024-03-29T11:09:13;10.52;;;2.20;;
78183;SDS011;67442;44.570;18.610;2024-03-29T11:11:42;11.55;;;2.03;;
78183;SDS011;67442;44.570;18.610;2024-03-29T11:14:27;8.35;;;1.58;;
78183;SDS011;67442;44.570;18.610;2024-03-29T11:17:08;17.10;;;6.38;;
78183;SDS011;67442;44.570;18.610;2024-03-29T11:19:38;12.23;;;2.40;;
78183;SDS011;67442;44.570;18.610;2024-03-29T11:22:05;11.80;;;2.10;;
78183;SDS011;67442;44.570;18.610;2024-03-29T11:24:38;9.20;;;2.67;;
78183;SDS011;67442;44.570;18.610;2024-03-29T11:27:10;10.02;;;2.10;;
78183;SDS011;67442;44.570;18.610;2024-03-29T11:29:37;15.63;;;3.72;;
78183;SDS011;67442;44.570;18.610;2024-03-29T11:32:09;9.35;;;2.17;;
78183;SDS011;67442;44.570;18.610;2024-03-29T11:34:43;19.60;;;2.88;;
78183;SDS011;67442;44.570;18.610;2024-03-29T11:37:14;12.88;;;4.40;;
78183;SDS011;67442;44.570;18.610;2024-03-29T11:39:46;10.18;;;2.95;;
78183;SDS011;67442;44.570;18.610;2024-03-29T11:42:15;9.32;;;1.50;;
78183;SDS011;67442;44.570;18.610;2024-03-29T11:44:43;13.27;;;4.28;;
78183;SDS011;67442;44.570;18.610;2024-03-29T11:47:11;15.38;;;2.83;;
78183;SDS011;67442;44.570;18.610;2024-03-29T11:49:41;13.93;;;2.08;;
78183;SDS011;67442;44.570;18.610;2024-03-29T11:52:09;12.27;;;1.80;;
78183;SDS011;67442;44.570;18.610;2024-03-29T11:54:37;7.55;;;1.95;;
78183;SDS011;67442;44.570;18.610;2024-03-29T11:57:07;8.98;;;2.17;;
78183;SDS011;67442;44.570;18.610;2024-03-29T11:59:35;12.35;;;1.95;;
78183;SDS011;67442;44.570;18.610;2024-03-29T12:02:02;15.85;;;3.90;;
78183;SDS011;67442;44.570;18.610;2024-03-29T12:04:39;14.55;;;2.47;;
78183;SDS011;67442;44.570;18.610;2024-03-29T12:07:11;11.43;;;1.65;;
78183;SDS011;67442;44.570;18.610;2024-03-29T12:09:39;15.48;;;1.60;;
78183;SDS011;67442;44.570;18.610;2024-03-29T12:12:07;11.27;;;1.70;;
78183;SDS011;67442;44.570;18.610;2024-03-29T12:14:35;8.52;;;1.88;;
78183;SDS011;67442;44.570;18.610;2024-03-29T12:17:10;8.55;;;1.55;;
78183;SDS011;67442;44.570;18.610;2024-03-29T12:19:39;12.95;;;1.77;;
78183;SDS011;67442;44.570;18.610;2024-03-29T12:22:09;10.10;;;1.65;;
78183;SDS011;67442;44.570;18.610;2024-03-29T12:24:37;11.48;;;1.50;;
78183;SDS011;67442;44.570;18.610;2024-03-29T12:27:06;6.75;;;1.75;;
78183;SDS011;67442;44.570;18.610;2024-03-29T12:29:34;9.15;;;1.73;;
78183;SDS011;67442;44.570;18.610;2024-03-29T12:32:05;10.90;;;2.17;;
78183;SDS011;67442;44.570;18.610;2024-03-29T12:34:35;8.63;;;1.80;;
78183;SDS011;67442;44.570;18.610;2024-03-29T12:37:02;10.40;;;1.60;;
78183;SDS011;67442;44.570;18.610;2024-03-29T12:39:34;5.65;;;1.58;;
78183;SDS011;67442;44.570;18.610;2024-03-29T12:42:05;9.68;;;1.63;;
78183;SDS011;67442;44.570;18.610;2024-03-29T12:44:36;10.55;;;1.58;;
78183;SDS011;67442;44.570;18.610;2024-03-29T12:47:06;10.13;;;1.80;;
78183;SDS011;67442;44.570;18.610;2024-03-29T12:49:34;8.48;;;1.83;;
78183;SDS011;67442;44.570;18.610;2024-03-29T12:52:06;13.18;;;2.17;;
78183;SDS011;67442;44.570;18.610;2024-03-29T12:54:33;13.38;;;2.90;;
78183;SDS011;67442;44.570;18.610;2024-03-29T12:57:01;7.88;;;1.52;;
78183;SDS011;67442;44.570;18.610;2024-03-29T12:59:28;8.80;;;2.03;;
78183;SDS011;67442;44.570;18.610;2024-03-29T13:01:55;8.15;;;1.77;;
78183;SDS011;67442;44.570;18.610;2024-03-29T13:04:23;10.90;;;1.35;;
78183;SDS011;67442;44.570;18.610;2024-03-29T13:06:50;20.88;;;1.80;;
78183;SDS011;67442;44.570;18.610;2024-03-29T13:09:18;13.65;;;2.00;;
78183;SDS011;67442;44.570;18.610;2024-03-29T13:11:46;5.05;;;1.50;;
78183;SDS011;67442;44.570;18.610;2024-03-29T13:14:18;7.80;;;1.83;;
78183;SDS011;67442;44.570;18.610;2024-03-29T13:16:46;5.95;;;1.27;;
78183;SDS011;67442;44.570;18.610;2024-03-29T13:19:17;7.50;;;1.35;;
78183;SDS011;67442;44.570;18.610;2024-03-29T13:21:47;19.58;;;1.83;;
78183;SDS011;67442;44.570;18.610;2024-03-29T13:24:15;9.13;;;1.60;;
78183;SDS011;67442;44.570;18.610;2024-03-29T13:26:44;11.65;;;1.50;;
78183;SDS011;67442;44.570;18.610;2024-03-29T13:29:11;7.63;;;1.67;;
78183;SDS011;67442;44.570;18.610;2024-03-29T13:31:41;9.35;;;1.60;;
78183;SDS011;67442;44.570;18.610;2024-03-29T13:34:09;10.40;;;1.63;;
78183;SDS011;67442;44.570;18.610;2024-03-29T13:36:42;8.90;;;2.05;;
78183;SDS011;67442;44.570;18.610;2024-03-29T13:39:10;14.55;;;2.17;;
78183;SDS011;67442;44.570;18.610;2024-03-29T13:41:39;17.58;;;2.63;;
78183;SDS011;67442;44.570;18.610;2024-03-29T13:44:07;25.65;;;6.35;;
78183;SDS011;67442;44.570;18.610;2024-03-29T13:46:35;9.73;;;1.77;;
78183;SDS011;67442;44.570;18.610;2024-03-29T13:49:02;9.90;;;1.88;;
78183;SDS011;67442;44.570;18.610;2024-03-29T13:51:29;12.55;;;2.10;;
78183;SDS011;67442;44.570;18.610;2024-03-29T13:53:57;9.32;;;1.85;;
78183;SDS011;67442;44.570;18.610;2024-03-29T13:56:24;9.88;;;1.80;;
78183;SDS011;67442;44.570;18.610;2024-03-29T13:58:52;10.02;;;1.83;;
78183;SDS011;67442;44.570;18.610;2024-03-29T14:01:23;14.27;;;1.77;;
78183;SDS011;67442;44.570;18.610;2024-03-29T14:03:55;10.93;;;1.45;;
78183;SDS011;67442;44.570;18.610;2024-03-29T14:06:22;9.23;;;1.63;;
78183;SDS011;67442;44.570;18.610;2024-03-29T14:08:49;13.85;;;2.40;;
78183;SDS011;67442;44.570;18.610;2024-03-29T14:11:21;9.48;;;2.83;;
78183;SDS011;67442;44.570;18.610;2024-03-29T14:13:48;13.15;;;1.80;;
78183;SDS011;67442;44.570;18.610;2024-03-29T14:16:22;4.50;;;1.50;;
78183;SDS011;67442;44.570;18.610;2024-03-29T14:18:50;15.43;;;1.65;;
78183;SDS011;67442;44.570;18.610;2024-03-29T14:21:17;7.80;;;1.63;;
78183;SDS011;67442;44.570;18.610;2024-03-29T14:23:44;11.05;;;2.08;;
78183;SDS011;67442;44.570;18.610;2024-03-29T14:26:15;16.13;;;2.25;;
78183;SDS011;67442;44.570;18.610;2024-03-29T14:28:43;12.55;;;2.00;;
78183;SDS011;67442;44.570;18.610;2024-03-29T14:31:11;17.77;;;2.42;;